createdAt,value
2023-04-18T00:00:49.012Z,101233.38
2023-04-18T00:03:17.027Z,101230.46
2023-04-18T00:05:46.686Z,101228.48
2023-04-18T00:08:13.882Z,101228.42
2023-04-18T00:10:40.559Z,101230.40
2023-04-18T00:13:06.861Z,101226.17
2023-04-18T00:15:34.779Z,101232.02
2023-04-18T00:18:03.232Z,101225.83
2023-04-18T00:20:30.061Z,101225.70
2023-04-18T00:22:56.480Z,101223.46
2023-04-18T00:25:22.860Z,101223.48
2023-04-18T00:27:49.124Z,101225.41
2023-04-18T00:30:17.056Z,101223.36
2023-04-18T00:32:43.857Z,101223.41
2023-04-18T00:35:10.182Z,101225.05
2023-04-18T00:37:37.734Z,101223.41
2023-04-18T00:40:05.035Z,101220.15
2023-04-18T00:42:31.429Z,101217.79
2023-04-18T00:44:57.733Z,101223.23
2023-04-18T00:47:24.535Z,101220.36
2023-04-18T00:49:51.048Z,101218.09
2023-04-18T00:52:18.039Z,101219.10
2023-04-18T00:54:44.824Z,101221.21
2023-04-18T00:57:12.359Z,101221.48
2023-04-18T00:59:38.676Z,101225.19
2023-04-18T01:02:07.315Z,101221.63
2023-04-18T01:04:33.766Z,101226.23
2023-04-18T01:07:01.562Z,101226.99
2023-04-18T01:09:28.681Z,101226.58
2023-04-18T01:11:55.316Z,101222.80
2023-04-18T01:14:21.939Z,101225.91
2023-04-18T01:16:48.262Z,101227.40
2023-04-18T01:19:16.728Z,101226.60
2023-04-18T01:21:43.329Z,101228.48
2023-04-18T01:24:15.896Z,101227.09
2023-04-18T01:26:44.616Z,101225.51
2023-04-18T01:29:11.681Z,101225.05
2023-04-18T01:31:39.314Z,101226.05
2023-04-18T01:34:07.188Z,101222.80
2023-04-18T01:36:35.296Z,101218.61
2023-04-18T01:39:01.865Z,101219.84
2023-04-18T01:41:31.626Z,101218.13
2023-04-18T01:43:59.032Z,101222.70
2023-04-18T01:46:26.324Z,101219.85
2023-04-18T01:48:54.740Z,101221.08
2023-04-18T01:51:21.458Z,101225.66
2023-04-18T01:53:47.998Z,101223.91
2023-04-18T01:56:14.334Z,101222.54
2023-04-18T01:58:41.018Z,101220.88
2023-04-18T02:01:07.720Z,101222.75
2023-04-18T02:03:34.398Z,101218.83
2023-04-18T02:06:04.703Z,101219.61
2023-04-18T02:08:34.689Z,101215.86
2023-04-18T02:11:04.766Z,101216.05
2023-04-18T02:13:32.163Z,101215.96
2023-04-18T02:15:58.551Z,101216.97
2023-04-18T02:18:25.914Z,101219.65
2023-04-18T02:20:52.217Z,101216.27
2023-04-18T02:23:18.575Z,101213.23
2023-04-18T02:25:45.099Z,101210.42
2023-04-18T02:28:12.465Z,101213.56
2023-04-18T02:30:38.723Z,101209.38
2023-04-18T02:33:05.047Z,101208.84
2023-04-18T02:35:31.430Z,101208.86
2023-04-18T02:37:57.718Z,101205.33
2023-04-18T02:40:24.844Z,101209.08
2023-04-18T02:42:52.999Z,101204.02
2023-04-18T02:45:19.341Z,101202.17
2023-04-18T02:47:54.720Z,101201.06
2023-04-18T02:50:23.846Z,101201.99
2023-04-18T02:52:50.292Z,101202.56
2023-04-18T02:55:17.070Z,101206.87
2023-04-18T02:57:43.650Z,101208.15
2023-04-18T03:00:40.835Z,101210.06
2023-04-18T03:03:20.823Z,101211.63
2023-04-18T03:05:57.133Z,101211.00
2023-04-18T03:08:23.613Z,101214.99
2023-04-18T03:10:49.933Z,101216.95
2023-04-18T03:13:18.508Z,101214.66
2023-04-18T03:15:45.824Z,101219.14
2023-04-18T03:18:12.950Z,101220.17
2023-04-18T03:20:40.291Z,101220.77
2023-04-18T03:23:07.022Z,101222.45
2023-04-18T03:25:35.082Z,101219.13
2023-04-18T03:28:02.255Z,101221.40
2023-04-18T03:30:28.821Z,101222.95
2023-04-18T03:32:56.577Z,101224.27
2023-04-18T03:35:23.507Z,101222.35
2023-04-18T03:37:50.104Z,101228.55
2023-04-18T03:40:28.128Z,101230.06
2023-04-18T03:42:59.457Z,101233.24
2023-04-18T03:45:26.237Z,101237.67
2023-04-18T03:47:52.664Z,101241.19
2023-04-18T03:50:19.861Z,101238.35
2023-04-18T03:52:46.428Z,101239.88
2023-04-18T03:55:14.629Z,101241.42
2023-04-18T03:57:41.414Z,101244.88
2023-04-18T04:00:11.440Z,101245.45
2023-04-18T04:02:49.637Z,101242.42
2023-04-18T04:05:19.141Z,101241.84
2023-04-18T04:07:46.452Z,101235.52
2023-04-18T04:10:12.748Z,101234.90
2023-04-18T04:12:39.052Z,101237.02
2023-04-18T04:15:06.465Z,101237.94
2023-04-18T04:17:34.768Z,101238.93
2023-04-18T04:20:01.719Z,101240.55
2023-04-18T04:22:29.796Z,101238.65
2023-04-18T04:24:57.036Z,101242.20
2023-04-18T04:27:27.536Z,101240.06
2023-04-18T04:29:55.701Z,101246.19
2023-04-18T04:32:22.163Z,101243.34
2023-04-18T04:34:48.783Z,101247.23
2023-04-18T04:37:17.919Z,101246.96
2023-04-18T04:39:55.903Z,101248.45
2023-04-18T04:42:34.279Z,101255.17
2023-04-18T04:45:09.100Z,101251.90
2023-04-18T04:47:36.147Z,101256.02
2023-04-18T04:50:03.654Z,101260.69
2023-04-18T04:52:32.252Z,101259.65
2023-04-18T04:54:58.842Z,101261.16
2023-04-18T04:57:25.557Z,101258.84
2023-04-18T04:59:52.281Z,101262.72
2023-04-18T05:02:22.780Z,101265.38
2023-04-18T05:04:49.249Z,101264.03
2023-04-18T05:07:15.552Z,101262.89
2023-04-18T05:09:41.777Z,101261.97
2023-04-18T05:12:08.173Z,101266.05
2023-04-18T05:14:34.829Z,101268.28
2023-04-18T05:17:02.376Z,101270.70
2023-04-18T05:19:28.900Z,101267.58
2023-04-18T05:21:55.654Z,101270.73
2023-04-18T05:24:21.991Z,101272.40
2023-04-18T05:26:48.347Z,101272.83
2023-04-18T05:29:14.636Z,101275.52
2023-04-18T05:31:40.953Z,101278.39
2023-04-18T05:34:07.303Z,101278.80
2023-04-18T05:36:33.951Z,101273.86
2023-04-18T05:39:00.343Z,101274.17
2023-04-18T05:41:26.611Z,101269.90
2023-04-18T05:44:04.314Z,101274.04
2023-04-18T05:46:34.815Z,101276.27
2023-04-18T05:49:01.921Z,101280.36
2023-04-18T05:51:28.576Z,101276.33
2023-04-18T05:53:55.025Z,101278.55
2023-04-18T05:56:21.327Z,101273.38
2023-04-18T05:58:48.348Z,101270.82
2023-04-18T06:01:15.411Z,101268.07
2023-04-18T06:03:41.920Z,101270.65
2023-04-18T06:06:09.082Z,101274.54
2023-04-18T06:08:35.503Z,101275.55
2023-04-18T06:11:02.343Z,101272.64
2023-04-18T06:13:29.030Z,101275.70
2023-04-18T06:15:55.366Z,101273.06
2023-04-18T06:18:21.913Z,101273.52
2023-04-18T06:20:48.621Z,101279.17
2023-04-18T06:23:14.999Z,101280.94
2023-04-18T06:25:42.074Z,101277.46
2023-04-18T06:28:08.509Z,101281.14
2023-04-18T06:30:34.980Z,101283.23
2023-04-18T06:33:01.337Z,101282.66
2023-04-18T06:35:31.440Z,101288.23
2023-04-18T06:37:57.740Z,101290.45
2023-04-18T06:40:24.048Z,101293.34
2023-04-18T06:42:50.869Z,101290.30
2023-04-18T06:45:17.387Z,101288.85
2023-04-18T06:47:43.977Z,101291.50
2023-04-18T06:50:10.627Z,101290.91
2023-04-18T06:52:39.899Z,101290.50
2023-04-18T06:55:08.321Z,101289.98
2023-04-18T06:57:35.109Z,101289.23
2023-04-18T07:00:01.636Z,101285.15
2023-04-18T07:02:27.944Z,101289.89
2023-04-18T07:04:54.306Z,101288.43
2023-04-18T07:07:20.685Z,101288.33
2023-04-18T07:09:48.190Z,101292.97
2023-04-18T07:12:15.428Z,101293.76
2023-04-18T07:14:41.719Z,101293.67
2023-04-18T07:17:08.288Z,101297.45
2023-04-18T07:19:34.616Z,101295.39
2023-04-18T07:22:00.851Z,101298.56
2023-04-18T07:24:27.293Z,101297.44
2023-04-18T07:26:55.157Z,101299.56
2023-04-18T07:29:21.820Z,101297.16
2023-04-18T07:31:48.613Z,101293.11
2023-04-18T07:34:15.443Z,101289.90
2023-04-18T07:36:42.047Z,101296.13
2023-04-18T07:39:08.716Z,101294.30
2023-04-18T07:41:35.017Z,101297.70
2023-04-18T07:44:01.762Z,101297.26
2023-04-18T07:46:28.391Z,101299.23
2023-04-18T07:48:54.790Z,101301.79
2023-04-18T07:51:24.770Z,101307.24
2023-04-18T07:53:51.109Z,101304.34
2023-04-18T07:56:18.193Z,101307.64
2023-04-18T07:58:44.866Z,101307.40
2023-04-18T08:01:13.359Z,101308.99
2023-04-18T08:03:40.005Z,101311.11
2023-04-18T08:06:06.653Z,101310.50
2023-04-18T08:08:33.083Z,101312.59
2023-04-18T08:10:59.353Z,101313.35
2023-04-18T08:13:25.687Z,101312.89
2023-04-18T08:15:51.953Z,101313.69
2023-04-18T08:18:19.430Z,101310.68
2023-04-18T08:20:46.094Z,101311.33
2023-04-18T08:23:13.334Z,101313.80
2023-04-18T08:25:40.177Z,101315.59
2023-04-18T08:28:06.537Z,101319.11
2023-04-18T08:30:33.240Z,101314.16
2023-04-18T08:33:00.606Z,101314.23
2023-04-18T08:35:27.496Z,101317.70
2023-04-18T08:37:53.776Z,101315.01
2023-04-18T08:40:20.682Z,101315.89
2023-04-18T08:42:48.024Z,101310.25
2023-04-18T08:45:17.212Z,101307.61
2023-04-18T08:47:43.529Z,101307.79
2023-04-18T08:50:10.774Z,101310.05
2023-04-18T08:52:39.202Z,101304.93
2023-04-18T08:55:06.544Z,101304.07
2023-04-18T08:57:35.201Z,101308.20
2023-04-18T09:00:04.856Z,101306.11
2023-04-18T09:02:41.776Z,101304.65
2023-04-18T09:05:11.733Z,101303.41
2023-04-18T09:07:38.085Z,101302.42
2023-04-18T09:10:04.921Z,101297.92
2023-04-18T09:12:31.985Z,101297.55
2023-04-18T09:15:15.606Z,101294.73
2023-04-18T09:17:50.186Z,101289.73
2023-04-18T09:20:41.607Z,101289.64
2023-04-18T09:23:10.414Z,101285.39
2023-04-18T09:25:45.142Z,101286.33
2023-04-18T09:28:28.220Z,101283.49
2023-04-18T09:31:16.793Z,101282.56
2023-04-18T09:33:53.698Z,101276.76
2023-04-18T09:36:21.901Z,101278.83
2023-04-18T09:38:50.457Z,101278.48
2023-04-18T09:41:18.493Z,101279.06
2023-04-18T09:43:47.346Z,101279.05
2023-04-18T09:46:16.716Z,101276.85
2023-04-18T09:48:43.006Z,101275.30
2023-04-18T09:51:12.635Z,101276.32
2023-04-18T09:53:40.778Z,101277.44
2023-04-18T09:56:13.907Z,101277.75
2023-04-18T09:58:41.637Z,101270.61
2023-04-18T10:01:08.271Z,101269.45
2023-04-18T10:03:43.605Z,101271.98
2023-04-18T10:06:11.189Z,101269.34
2023-04-18T10:08:39.142Z,101269.98
2023-04-18T10:11:05.545Z,101262.97
2023-04-18T10:13:35.368Z,101257.48
2023-04-18T10:16:02.287Z,101256.02
2023-04-18T10:18:28.716Z,101249.62
2023-04-18T10:21:02.785Z,101250.52
2023-04-18T10:23:33.946Z,101252.13
2023-04-18T10:26:04.133Z,101237.65
2023-04-18T10:28:52.303Z,101234.42
2023-04-18T10:31:20.714Z,101239.17
2023-04-18T10:34:03.216Z,101237.06
2023-04-18T10:36:31.761Z,101235.22
2023-04-18T10:39:21.328Z,101235.52
2023-04-18T10:41:50.715Z,101243.27
2023-04-18T10:44:21.111Z,101235.39
2023-04-18T10:46:47.864Z,101232.16
2023-04-18T10:49:27.950Z,101224.48
2023-04-18T10:51:57.945Z,101220.54
2023-04-18T10:54:32.668Z,101220.96
2023-04-18T10:57:03.957Z,101219.88
2023-04-18T10:59:32.291Z,101219.05
2023-04-18T11:02:22.484Z,101213.30
2023-04-18T11:04:53.686Z,101212.55
2023-04-18T11:07:44.332Z,101205.59
2023-04-18T11:10:11.786Z,101206.05
2023-04-18T11:12:40.355Z,101205.81
2023-04-18T11:15:12.322Z,101202.19
2023-04-18T11:17:43.593Z,101196.34
2023-04-18T11:20:13.446Z,101190.54
2023-04-18T11:22:43.481Z,101194.18
2023-04-18T11:25:10.237Z,101194.82
2023-04-18T11:27:37.091Z,101191.73
2023-04-18T11:30:04.275Z,101192.60
2023-04-18T11:32:33.486Z,101190.58
2023-04-18T11:34:59.900Z,101186.63
2023-04-18T11:37:26.349Z,101182.47
2023-04-18T11:39:53.455Z,101184.93
2023-04-18T11:42:20.508Z,101183.86
2023-04-18T11:44:48.399Z,101183.09
2023-04-18T11:47:33.243Z,101175.64
2023-04-18T11:50:08.018Z,101166.17
2023-04-18T11:52:36.063Z,101173.30
2023-04-18T11:55:23.850Z,101170.58
2023-04-18T11:57:55.405Z,101164.90
2023-04-18T12:00:34.848Z,101167.02
2023-04-18T12:03:07.280Z,101165.16
2023-04-18T12:05:38.490Z,101164.45
2023-04-18T12:08:11.075Z,101161.56
2023-04-18T12:10:45.386Z,101158.18
2023-04-18T12:13:11.769Z,101163.29
2023-04-18T12:15:41.567Z,101160.91
2023-04-18T12:18:07.883Z,101165.98
2023-04-18T12:20:37.063Z,101162.70
2023-04-18T12:23:03.518Z,101158.96
2023-04-18T12:25:30.941Z,101155.58
2023-04-18T12:27:59.797Z,101157.59
2023-04-18T12:30:31.089Z,101155.88
2023-04-18T12:33:00.620Z,101159.29
2023-04-18T12:35:28.242Z,101156.69
2023-04-18T12:37:56.407Z,101156.36
2023-04-18T12:40:23.396Z,101153.85
2023-04-18T12:42:51.044Z,101146.73
2023-04-18T12:45:19.849Z,101147.23
2023-04-18T12:47:47.779Z,101143.80
2023-04-18T12:50:19.557Z,101148.05
2023-04-18T12:52:46.188Z,101147.80
2023-04-18T12:55:13.405Z,101150.75
2023-04-18T12:57:41.649Z,101146.08
2023-04-18T13:00:10.518Z,101144.31
2023-04-18T13:02:38.319Z,101140.07
2023-04-18T13:05:06.249Z,101141.11
2023-04-18T13:07:33.015Z,101137.38
2023-04-18T13:09:59.378Z,101136.27
2023-04-18T13:12:25.949Z,101134.80
2023-04-18T13:14:52.437Z,101129.38
2023-04-18T13:17:18.699Z,101130.08
2023-04-18T13:19:45.449Z,101127.20
2023-04-18T13:22:11.711Z,101123.05
2023-04-18T13:24:38.041Z,101119.05
2023-04-18T13:27:09.680Z,101121.18
2023-04-18T13:29:40.453Z,101119.78
2023-04-18T13:32:07.652Z,101113.61
2023-04-18T13:34:39.079Z,101116.27
2023-04-18T13:37:05.752Z,101117.44
2023-04-18T13:39:32.990Z,101114.97
2023-04-18T13:41:59.321Z,101118.09
2023-04-18T13:44:26.118Z,101115.58
2023-04-18T13:46:53.899Z,101116.23
2023-04-18T13:49:20.493Z,101116.66
2023-04-18T13:51:46.891Z,101113.73
2023-04-18T13:54:14.865Z,101114.59
2023-04-18T13:56:42.053Z,101115.74
2023-04-18T13:59:08.341Z,101109.09
2023-04-18T14:01:34.798Z,101109.30
2023-04-18T14:04:02.439Z,101111.73
2023-04-18T14:06:28.964Z,101104.98
2023-04-18T14:08:55.224Z,101101.09
2023-04-18T14:11:22.427Z,101098.82
2023-04-18T14:13:50.145Z,101098.48
2023-04-18T14:16:18.272Z,101096.75
2023-04-18T14:18:45.632Z,101094.56
2023-04-18T14:21:12.472Z,101092.16
2023-04-18T14:23:38.717Z,101091.67
2023-04-18T14:26:04.958Z,101091.42
2023-04-18T14:28:31.500Z,101089.25
2023-04-18T14:31:01.263Z,101090.08
2023-04-18T14:33:28.550Z,101086.98
2023-04-18T14:35:55.239Z,101083.74
2023-04-18T14:38:21.478Z,101082.97
2023-04-18T14:40:47.824Z,101079.85
2023-04-18T14:43:14.051Z,101081.08
2023-04-18T14:45:41.410Z,101078.36
2023-04-18T14:48:10.027Z,101077.42
2023-04-18T14:50:37.854Z,101077.80
2023-04-18T14:53:04.891Z,101078.61
2023-04-18T14:55:32.688Z,101074.41
2023-04-18T14:57:59.467Z,101075.91
2023-04-18T15:00:26.267Z,101071.09
2023-04-18T15:02:53.264Z,101073.66
2023-04-18T15:05:22.958Z,101071.84
2023-04-18T15:07:52.284Z,101067.98
2023-04-18T15:10:21.612Z,101066.02
2023-04-18T15:12:48.045Z,101063.95
2023-04-18T15:15:14.516Z,101064.30
2023-04-18T15:17:40.911Z,101062.98
2023-04-18T15:20:07.769Z,101062.15
2023-04-18T15:22:35.242Z,101060.67
2023-04-18T15:25:03.611Z,101060.80
2023-04-18T15:27:29.887Z,101060.22
2023-04-18T15:29:58.184Z,101062.56
2023-04-18T15:32:26.091Z,101061.10
2023-04-18T15:34:52.556Z,101059.02
2023-04-18T15:37:18.954Z,101056.81
2023-04-18T15:39:45.345Z,101056.77
2023-04-18T15:42:11.566Z,101055.36
2023-04-18T15:44:37.898Z,101055.01
2023-04-18T15:47:04.191Z,101057.66
2023-04-18T15:49:30.545Z,101056.48
2023-04-18T15:51:56.952Z,101056.54
2023-04-18T15:54:23.285Z,101056.66
2023-04-18T15:56:50.926Z,101056.19
2023-04-18T15:59:17.295Z,101059.09
2023-04-18T16:01:45.873Z,101058.45
2023-04-18T16:04:12.835Z,101054.30
2023-04-18T16:06:39.970Z,101057.59
2023-04-18T16:09:06.247Z,101053.94
2023-04-18T16:11:32.495Z,101054.16
2023-04-18T16:13:58.746Z,101051.59
2023-04-18T16:16:25.849Z,101048.85
2023-04-18T16:18:52.132Z,101046.74
2023-04-18T16:21:19.903Z,101046.74
2023-04-18T16:23:47.983Z,101045.73
2023-04-18T16:26:14.361Z,101046.73
2023-04-18T16:28:41.344Z,101045.81
2023-04-18T16:31:07.745Z,101040.13
2023-04-18T16:33:35.202Z,101042.70
2023-04-18T16:36:02.383Z,101039.42
2023-04-18T16:38:28.734Z,101040.14
2023-04-18T16:40:56.717Z,101039.52
2023-04-18T16:43:30.208Z,101038.06
2023-04-18T16:45:57.294Z,101038.04
2023-04-18T16:48:23.911Z,101040.40
2023-04-18T16:50:51.155Z,101040.30
2023-04-18T16:53:17.573Z,101037.82
2023-04-18T16:55:43.867Z,101039.27
2023-04-18T16:58:10.453Z,101036.64
2023-04-18T17:00:38.359Z,101033.95
2023-04-18T17:03:09.354Z,101032.44
2023-04-18T17:05:38.609Z,101034.27
2023-04-18T17:08:06.076Z,101033.59
2023-04-18T17:10:33.161Z,101035.40
2023-04-18T17:13:01.448Z,101035.81
2023-04-18T17:15:27.846Z,101033.16
2023-04-18T17:17:55.875Z,101037.58
2023-04-18T17:20:22.945Z,101037.56
2023-04-18T17:22:49.246Z,101031.14
2023-04-18T17:25:15.964Z,101035.80
2023-04-18T17:27:42.616Z,101031.92
2023-04-18T17:30:09.509Z,101034.02
2023-04-18T17:32:36.280Z,101034.91
2023-04-18T17:35:05.553Z,101032.59
2023-04-18T17:37:31.860Z,101029.73
2023-04-18T17:39:59.727Z,101032.40
2023-04-18T17:42:26.259Z,101030.70
2023-04-18T17:44:52.607Z,101028.54
2023-04-18T17:47:18.839Z,101025.88
2023-04-18T17:49:45.653Z,101026.27
2023-04-18T17:52:11.977Z,101028.77
2023-04-18T17:54:38.219Z,101029.63
2023-04-18T17:57:04.784Z,101031.63
2023-04-18T17:59:36.749Z,101033.63
2023-04-18T18:02:04.196Z,101032.95
2023-04-18T18:04:31.134Z,101030.20
2023-04-18T18:06:58.308Z,101029.25
2023-04-18T18:09:24.769Z,101031.61
2023-04-18T18:11:52.451Z,101030.90
2023-04-18T18:14:20.631Z,101030.80
2023-04-18T18:16:46.994Z,101028.40
2023-04-18T18:19:14.696Z,101028.73
2023-04-18T18:21:41.547Z,101024.09
2023-04-18T18:24:08.475Z,101027.34
2023-04-18T18:26:35.520Z,101027.59
2023-04-18T18:29:08.470Z,101022.83
2023-04-18T18:31:35.720Z,101020.39
2023-04-18T18:34:02.759Z,101019.79
2023-04-18T18:36:29.267Z,101018.11
2023-04-18T18:38:57.421Z,101015.07
2023-04-18T18:41:24.237Z,101017.17
2023-04-18T18:43:51.073Z,101014.75
2023-04-18T18:46:18.197Z,101008.92
2023-04-18T18:48:44.642Z,101010.28
2023-04-18T18:51:11.329Z,101011.15
2023-04-18T18:53:40.218Z,101010.62
2023-04-18T18:56:08.083Z,101003.84
2023-04-18T18:58:35.261Z,101006.66
2023-04-18T19:01:02.609Z,101002.77
2023-04-18T19:03:29.803Z,101004.48
2023-04-18T19:05:56.472Z,100997.86
2023-04-18T19:08:22.766Z,100996.56
2023-04-18T19:10:49.871Z,100995.02
2023-04-18T19:13:16.271Z,100993.39
2023-04-18T19:15:42.675Z,100991.29
2023-04-18T19:18:09.158Z,100990.90
2023-04-18T19:20:38.032Z,100990.70
2023-04-18T19:23:04.299Z,100982.96
2023-04-18T19:25:30.713Z,100983.92
2023-04-18T19:27:57.050Z,100980.42
2023-04-18T19:30:24.384Z,100979.70
2023-04-18T19:32:51.158Z,100975.16
2023-04-18T19:35:20.188Z,100976.25
2023-04-18T19:37:47.313Z,100978.32
2023-04-18T19:40:18.455Z,100976.53
2023-04-18T19:42:45.439Z,100974.97
2023-04-18T19:45:12.949Z,100974.28
2023-04-18T19:47:39.362Z,100971.20
2023-04-18T19:50:06.852Z,100970.25
2023-04-18T19:52:33.243Z,100965.36
2023-04-18T19:55:01.875Z,100968.75
2023-04-18T19:57:29.066Z,100963.56
2023-04-18T19:59:55.868Z,100964.15
2023-04-18T20:02:22.195Z,100957.32
2023-04-18T20:04:48.821Z,100957.63
2023-04-18T20:07:15.797Z,100958.88
2023-04-18T20:09:42.110Z,100964.12
2023-04-18T20:12:08.480Z,100959.97
2023-04-18T20:14:34.958Z,100954.02
2023-04-18T20:17:01.505Z,100954.08
2023-04-18T20:19:28.907Z,100952.57
2023-04-18T20:21:55.395Z,100952.22
2023-04-18T20:24:23.036Z,100941.36
2023-04-18T20:26:50.671Z,100944.47
2023-04-18T20:29:17.053Z,100940.56
2023-04-18T20:44:48.544Z,100933.27
2023-04-18T20:47:15.936Z,100932.35
2023-04-18T20:49:42.363Z,100930.42
2023-04-18T20:52:13.722Z,100927.32
2023-04-18T20:54:41.007Z,100932.41
2023-04-18T20:57:07.555Z,100926.14
2023-04-18T20:59:34.120Z,100925.84
2023-04-18T21:02:01.050Z,100925.80
2023-04-18T21:04:28.740Z,100921.77
2023-04-18T21:06:55.542Z,100920.73
2023-04-18T21:09:22.467Z,100913.23
2023-04-18T21:11:49.158Z,100909.72
2023-04-18T21:14:16.559Z,100906.86
2023-04-18T21:16:43.221Z,100906.99
2023-04-18T21:19:10.904Z,100901.60
2023-04-18T21:21:37.163Z,100898.32
2023-04-18T21:24:05.049Z,100896.98
2023-04-18T21:26:31.285Z,100898.11
2023-04-18T21:29:03.923Z,100894.83
2023-04-18T21:31:32.575Z,100893.08
2023-04-18T21:34:00.934Z,100895.56
2023-04-18T21:36:28.303Z,100888.20
2023-04-18T21:38:57.626Z,100888.58
2023-04-18T21:41:24.552Z,100886.77
2023-04-18T21:43:51.236Z,100884.09
2023-04-18T21:46:18.429Z,100882.36
2023-04-18T21:48:46.926Z,100881.86
2023-04-18T21:51:15.506Z,100879.98
2023-04-18T21:53:42.344Z,100878.85
2023-04-18T21:56:09.159Z,100878.76
2023-04-18T21:58:35.498Z,100874.61
2023-04-18T22:01:02.432Z,100872.61
2023-04-18T22:03:29.354Z,100874.19
2023-04-18T22:05:56.036Z,100873.66
2023-04-18T22:08:24.996Z,100870.33
2023-04-18T22:10:54.359Z,100867.83
2023-04-18T22:13:21.545Z,100868.55
2023-04-18T22:15:49.247Z,100870.38
2023-04-18T22:18:15.573Z,100868.55
2023-04-18T22:20:42.488Z,100868.13
2023-04-18T22:23:08.989Z,100863.55
2023-04-18T22:25:35.642Z,100859.58
2023-04-18T22:28:03.017Z,100862.11
2023-04-18T22:30:30.362Z,100854.86
2023-04-18T22:32:58.359Z,100853.02
2023-04-18T22:35:26.149Z,100852.15
2023-04-18T22:37:52.391Z,100851.78
2023-04-18T22:40:18.841Z,100847.02
2023-04-18T22:42:45.202Z,100848.78
2023-04-18T22:45:12.737Z,100847.93
2023-04-18T22:47:39.116Z,100846.71
2023-04-18T22:50:06.382Z,100845.69
2023-04-18T22:52:33.361Z,100840.73
2023-04-18T22:55:01.564Z,100837.12
2023-04-18T22:57:28.014Z,100836.38
2023-04-18T22:59:54.351Z,100831.86
2023-04-18T23:02:20.737Z,100828.94
2023-04-18T23:04:47.342Z,100823.92
2023-04-18T23:07:13.727Z,100828.06
2023-04-18T23:09:40.272Z,100825.74
2023-04-18T23:12:06.632Z,100820.55
2023-04-18T23:14:34.148Z,100821.33
2023-04-18T23:17:00.669Z,100816.95
2023-04-18T23:19:26.922Z,100815.60
2023-04-18T23:21:53.519Z,100810.14
2023-04-18T23:24:19.735Z,100808.61
2023-04-18T23:26:45.963Z,100806.06
2023-04-18T23:29:12.218Z,100801.17
2023-04-18T23:31:38.490Z,100798.70
2023-04-18T23:34:04.769Z,100794.04
2023-04-18T23:36:31.614Z,100787.56
2023-04-18T23:38:58.258Z,100783.36
2023-04-18T23:41:24.754Z,100780.41
2023-04-18T23:43:51.100Z,100777.11
2023-04-18T23:46:17.488Z,100773.11
2023-04-18T23:48:43.871Z,100773.17
2023-04-18T23:51:10.475Z,100770.32
2023-04-18T23:53:36.710Z,100767.36
2023-04-18T23:56:03.091Z,100764.41
2023-04-18T23:58:30.968Z,100759.79
